createdAt,value
2022-09-03T00:01:57.943Z,34.53
2022-09-03T00:04:53.141Z,34.48
2022-09-03T00:07:47.259Z,34.47
2022-09-03T00:10:45.031Z,34.61
2022-09-03T00:13:38.080Z,34.79
2022-09-03T00:16:31.320Z,34.45
2022-09-03T00:19:21.782Z,34.45
2022-09-03T00:22:12.198Z,34.44
2022-09-03T00:25:01.502Z,34.54
2022-09-03T00:27:55.145Z,34.61
2022-09-03T00:30:44.323Z,34.41
2022-09-03T00:33:35.421Z,34.68
2022-09-03T00:36:30.248Z,34.29
2022-09-03T00:39:21.707Z,34.31
2022-09-03T00:42:23.631Z,34.34
2022-09-03T00:45:20.325Z,34.53
2022-09-03T00:48:18.527Z,34.56
2022-09-03T00:51:16.986Z,34.62
2022-09-03T00:54:09.807Z,34.65
2022-09-03T00:57:10.525Z,34.61
2022-09-03T01:00:06.071Z,34.55
2022-09-03T01:03:07.886Z,34.54
2022-09-03T01:06:11.116Z,34.60
2022-09-03T01:09:12.167Z,34.67
2022-09-03T01:12:03.195Z,34.67
2022-09-03T01:15:00.162Z,34.75
2022-09-03T01:17:59.241Z,34.79
2022-09-03T01:20:56.024Z,34.71
2022-09-03T01:23:58.324Z,34.75
2022-09-03T01:27:01.374Z,34.90
2022-09-03T01:29:55.559Z,34.50
2022-09-03T01:32:48.606Z,34.74
2022-09-03T01:35:41.441Z,34.64
2022-09-03T01:38:36.484Z,34.73
2022-09-03T01:41:59.031Z,34.75
2022-09-03T01:45:36.116Z,34.91
2022-09-03T01:48:44.265Z,34.65
2022-09-03T01:51:33.847Z,34.69
2022-09-03T01:54:33.003Z,34.75
2022-09-03T01:57:37.540Z,34.67
2022-09-03T02:00:26.918Z,34.65
2022-09-03T02:03:16.028Z,34.66
2022-09-03T02:06:07.737Z,34.42
2022-09-03T02:08:56.224Z,34.71
2022-09-03T02:11:46.931Z,34.73
2022-09-03T02:14:36.171Z,34.38
2022-09-03T02:17:24.767Z,34.57
2022-09-03T02:20:20.035Z,34.74
2022-09-03T02:23:09.971Z,34.80
2022-09-03T02:25:59.810Z,34.72
2022-09-03T02:28:48.428Z,34.75
2022-09-03T02:31:37.063Z,34.83
2022-09-03T02:34:25.610Z,34.85
2022-09-03T02:37:15.365Z,34.77
2022-09-03T02:40:09.191Z,34.93
2022-09-03T02:42:57.849Z,34.93
2022-09-03T02:45:49.342Z,34.74
2022-09-03T02:48:38.010Z,34.53
2022-09-03T02:51:26.666Z,34.51
2022-09-03T02:54:20.229Z,34.46
2022-09-03T02:57:12.279Z,34.73
2022-09-03T03:00:00.763Z,34.63
2022-09-03T03:02:50.025Z,34.63
2022-09-03T03:05:44.958Z,34.73
2022-09-03T03:08:35.101Z,34.66
2022-09-03T03:11:24.066Z,34.43
2022-09-03T03:14:14.319Z,34.65
2022-09-03T03:17:02.957Z,35.03
2022-09-03T03:19:51.714Z,34.81
2022-09-03T03:22:40.185Z,34.82
2022-09-03T03:25:28.723Z,34.71
2022-09-03T03:28:19.029Z,34.90
2022-09-03T03:31:09.647Z,34.63
2022-09-03T03:34:00.008Z,34.60
2022-09-03T03:36:48.506Z,34.64
2022-09-03T03:39:37.232Z,34.54
2022-09-03T03:42:26.030Z,34.57
2022-09-03T03:45:14.536Z,34.79
2022-09-03T03:48:04.889Z,34.80
2022-09-03T03:50:55.960Z,34.88
2022-09-03T03:53:44.448Z,34.87
2022-09-03T03:56:33.043Z,34.87
2022-09-03T03:59:21.610Z,34.90
2022-09-03T04:02:10.189Z,35.02
2022-09-03T04:05:00.319Z,34.88
2022-09-03T04:07:48.785Z,35.01
2022-09-03T04:10:37.873Z,35.02
2022-09-03T04:13:27.137Z,34.89
2022-09-03T04:16:18.184Z,34.71
2022-09-03T04:19:07.178Z,34.62
2022-09-03T04:21:57.113Z,34.83
2022-09-03T04:24:46.319Z,34.82
2022-09-03T04:27:34.853Z,34.56
2022-09-03T04:30:23.447Z,34.89
2022-09-03T04:33:16.383Z,35.08
2022-09-03T04:36:09.786Z,34.88
2022-09-03T04:39:01.690Z,34.64
2022-09-03T04:41:52.704Z,34.81
2022-09-03T04:44:41.377Z,34.91
2022-09-03T04:47:29.905Z,34.83
2022-09-03T04:50:18.805Z,34.57
2022-09-03T04:53:07.922Z,34.88
2022-09-03T04:55:58.224Z,34.88
2022-09-03T04:58:47.044Z,34.72
2022-09-03T05:01:43.461Z,34.93
2022-09-03T05:04:31.905Z,35.03
2022-09-03T05:07:21.021Z,34.93
2022-09-03T05:10:13.059Z,35.02
2022-09-03T05:13:03.911Z,34.70
2022-09-03T05:15:52.396Z,34.66
2022-09-03T05:18:42.431Z,34.73
2022-09-03T05:21:31.184Z,34.62
2022-09-03T05:24:20.084Z,34.94
2022-09-03T05:27:08.568Z,35.05
2022-09-03T05:29:58.446Z,35.00
2022-09-03T05:32:46.925Z,35.13
2022-09-03T05:35:35.422Z,35.22
2022-09-03T05:38:23.995Z,35.21
2022-09-03T05:41:14.608Z,35.21
2022-09-03T05:44:04.066Z,35.25
2022-09-03T05:46:53.981Z,35.40
2022-09-03T05:49:42.491Z,35.50
2022-09-03T05:52:30.966Z,35.43
2022-09-03T05:55:19.642Z,35.41
2022-09-03T05:58:08.371Z,35.56
2022-09-03T06:00:56.943Z,35.44
2022-09-03T06:03:47.911Z,35.48
2022-09-03T06:06:38.889Z,35.41
2022-09-03T06:09:27.487Z,35.36
2022-09-03T06:12:16.010Z,35.36
2022-09-03T06:15:05.773Z,35.43
2022-09-03T06:17:54.444Z,35.50
2022-09-03T06:20:44.336Z,35.75
2022-09-03T06:23:34.017Z,35.50
2022-09-03T06:26:25.315Z,35.29
2022-09-03T06:29:14.073Z,35.57
2022-09-03T06:32:05.049Z,35.36
2022-09-03T06:34:53.582Z,35.42
2022-09-03T06:37:44.197Z,35.37
2022-09-03T06:40:33.176Z,35.48
2022-09-03T06:43:21.789Z,35.40
2022-09-03T06:46:12.296Z,35.58
2022-09-03T06:49:01.245Z,35.55
2022-09-03T06:51:49.800Z,35.46
2022-09-03T06:54:39.639Z,35.63
2022-09-03T06:57:28.181Z,35.48
2022-09-03T07:00:17.746Z,35.46
2022-09-03T07:03:07.224Z,35.53
2022-09-03T07:05:55.764Z,35.60
2022-09-03T07:08:46.257Z,35.62
2022-09-03T07:11:36.711Z,35.89
2022-09-03T07:14:25.611Z,35.76
2022-09-03T07:17:16.569Z,35.75
2022-09-03T07:20:05.605Z,35.78
2022-09-03T07:22:57.532Z,35.57
2022-09-03T07:25:46.128Z,35.64
2022-09-03T07:28:39.947Z,35.57
2022-09-03T07:31:36.145Z,35.81
2022-09-03T07:34:26.567Z,35.47
2022-09-03T07:37:15.868Z,35.36
2022-09-03T07:40:05.145Z,35.43
2022-09-03T07:43:04.512Z,35.43
2022-09-03T07:45:55.635Z,35.34
2022-09-03T07:48:45.317Z,35.48
2022-09-03T07:51:35.831Z,35.48
2022-09-03T07:54:27.384Z,35.62
2022-09-03T07:57:16.003Z,35.54
2022-09-03T08:00:05.800Z,35.26
2022-09-03T08:02:56.182Z,35.87
2022-09-03T08:05:44.788Z,35.81
2022-09-03T08:08:35.661Z,35.21
2022-09-03T08:11:25.102Z,34.97
2022-09-03T08:14:15.449Z,35.04
2022-09-03T08:17:03.980Z,35.25
2022-09-03T08:19:54.008Z,35.36
2022-09-03T08:22:43.908Z,35.44
2022-09-03T08:25:33.932Z,35.24
2022-09-03T08:28:23.407Z,35.20
2022-09-03T08:31:14.101Z,34.97
2022-09-03T08:34:06.680Z,34.68
2022-09-03T08:36:56.857Z,34.58
2022-09-03T08:39:45.426Z,34.30
2022-09-03T08:42:44.379Z,34.00
2022-09-03T08:45:33.719Z,34.59
2022-09-03T08:48:25.900Z,34.38
2022-09-03T08:51:17.194Z,34.21
2022-09-03T08:54:08.714Z,33.88
2022-09-03T08:56:57.733Z,33.67
2022-09-03T08:59:46.428Z,33.77
2022-09-03T09:02:41.614Z,33.69
2022-09-03T09:05:40.207Z,34.01
2022-09-03T09:08:35.138Z,34.27
2022-09-03T09:11:33.525Z,34.00
2022-09-03T09:14:30.586Z,33.15
2022-09-03T09:17:42.974Z,32.41
2022-09-03T09:20:37.973Z,32.50
2022-09-03T09:23:29.508Z,32.13
2022-09-03T09:26:19.632Z,32.24
2022-09-03T09:29:13.817Z,32.13
2022-09-03T09:32:02.611Z,32.07
2022-09-03T09:34:54.595Z,32.18
2022-09-03T09:37:51.643Z,32.10
2022-09-03T09:40:44.965Z,32.67
2022-09-03T09:43:36.096Z,31.94
2022-09-03T09:46:29.724Z,32.04
2022-09-03T09:49:32.024Z,31.67
2022-09-03T09:52:22.244Z,31.24
2022-09-03T09:55:12.848Z,31.18
2022-09-03T09:58:14.036Z,30.98
2022-09-03T10:01:13.080Z,30.72
2022-09-03T10:04:10.978Z,30.99
2022-09-03T10:07:03.590Z,30.73
2022-09-03T10:10:08.887Z,30.93
2022-09-03T10:13:01.735Z,31.29
2022-09-03T10:15:53.065Z,31.11
2022-09-03T10:18:45.131Z,31.03
2022-09-03T10:21:42.896Z,30.78
2022-09-03T10:24:40.992Z,31.05
2022-09-03T10:27:30.100Z,31.16
2022-09-03T10:30:20.906Z,30.71
2022-09-03T10:33:13.370Z,30.91
2022-09-03T10:36:13.754Z,30.59
2022-09-03T10:39:07.648Z,30.51
2022-09-03T10:42:07.437Z,30.71
2022-09-03T10:45:03.723Z,30.32
2022-09-03T10:48:06.552Z,30.51
2022-09-03T10:50:57.049Z,30.50
2022-09-03T10:54:01.411Z,30.59
2022-09-03T10:56:56.677Z,30.68
2022-09-03T10:59:57.179Z,30.48
2022-09-03T11:03:06.226Z,30.49
2022-09-03T11:06:00.920Z,30.74
2022-09-03T11:08:55.666Z,31.13
2022-09-03T11:11:47.398Z,30.98
2022-09-03T11:14:40.332Z,31.16
2022-09-03T11:17:33.425Z,31.08
2022-09-03T11:20:23.754Z,30.93
2022-09-03T11:23:14.868Z,30.62
2022-09-03T11:26:06.849Z,30.63
2022-09-03T11:28:59.547Z,30.73
2022-09-03T11:31:57.898Z,30.82
2022-09-03T11:34:48.821Z,31.17
2022-09-03T11:37:49.101Z,30.91
2022-09-03T11:40:40.015Z,30.91
2022-09-03T11:43:30.197Z,31.11
2022-09-03T11:46:30.569Z,31.35
2022-09-03T11:49:30.273Z,30.92
2022-09-03T11:52:28.374Z,31.24
2022-09-03T11:55:31.834Z,31.02
2022-09-03T11:58:28.573Z,30.64
2022-09-03T12:01:19.238Z,30.74
2022-09-03T12:04:09.751Z,30.91
2022-09-03T12:07:17.622Z,31.04
2022-09-03T12:10:20.323Z,30.98
2022-09-03T12:13:20.300Z,30.72
2022-09-03T12:16:25.630Z,30.79
2022-09-03T12:19:22.137Z,30.47
2022-09-03T12:22:16.605Z,30.88
2022-09-03T12:25:11.444Z,30.43
2022-09-03T12:28:03.943Z,30.36
2022-09-03T12:30:53.662Z,30.38
2022-09-03T12:33:43.062Z,30.34
2022-09-03T12:36:38.798Z,30.85
2022-09-03T12:42:40.066Z,30.28
2022-09-03T12:46:09.889Z,30.43
2022-09-03T12:48:39.721Z,30.70
2022-09-03T12:51:55.254Z,30.34
2022-09-03T12:54:51.897Z,30.90
2022-09-03T12:57:43.669Z,30.17
2022-09-03T13:00:34.081Z,30.39
2022-09-03T13:03:26.581Z,30.20
2022-09-03T13:06:16.534Z,30.70
2022-09-03T13:09:07.476Z,30.65
2022-09-03T13:11:59.188Z,30.63
2022-09-03T13:14:52.490Z,31.05
2022-09-03T13:18:06.334Z,30.80
2022-09-03T13:21:08.022Z,30.66
2022-09-03T13:24:07.344Z,30.68
2022-09-03T13:27:08.375Z,30.92
2022-09-03T13:30:09.145Z,30.80
2022-09-03T13:33:01.967Z,31.04
2022-09-03T13:35:53.797Z,31.07
2022-09-03T13:38:45.594Z,30.53
2022-09-03T13:41:37.634Z,30.80
2022-09-03T13:44:40.724Z,31.07
2022-09-03T13:47:33.115Z,30.82
2022-09-03T13:50:22.549Z,30.89
2022-09-03T13:53:16.761Z,30.71
2022-09-03T13:56:15.716Z,30.69
2022-09-03T13:59:09.760Z,30.61
2022-09-03T14:02:12.896Z,30.92
2022-09-03T14:05:07.601Z,30.70
2022-09-03T14:08:08.635Z,30.92
2022-09-03T14:11:02.808Z,30.83
2022-09-03T14:14:18.623Z,30.47
2022-09-03T14:17:14.293Z,30.35
2022-09-03T14:20:06.806Z,30.16
2022-09-03T14:22:58.567Z,30.17
2022-09-03T14:25:54.505Z,30.50
2022-09-03T14:28:51.241Z,30.55
2022-09-03T14:31:53.365Z,30.45
2022-09-03T14:34:53.935Z,30.71
2022-09-03T14:38:26.930Z,30.76
2022-09-03T14:41:38.612Z,30.39
2022-09-03T14:44:45.735Z,30.59
2022-09-03T14:47:44.670Z,30.14
2022-09-03T14:50:45.739Z,30.44
2022-09-03T14:54:01.460Z,30.29
2022-09-03T14:56:54.353Z,30.34
2022-09-03T15:00:07.998Z,30.47
2022-09-03T15:03:32.169Z,31.02
2022-09-03T15:06:31.641Z,30.59
2022-09-03T15:09:27.683Z,30.66
2022-09-03T15:12:21.195Z,30.83
2022-09-03T15:15:15.448Z,30.43
2022-09-03T15:18:13.426Z,30.46
2022-09-03T15:21:06.655Z,30.22
2022-09-03T15:24:06.827Z,30.15
2022-09-03T15:27:01.418Z,30.62
2022-09-03T15:29:59.673Z,30.64
2022-09-03T15:32:53.635Z,30.60
2022-09-03T15:35:53.462Z,30.71
2022-09-03T15:38:47.019Z,30.42
2022-09-03T15:41:42.255Z,30.77
2022-09-03T15:44:38.207Z,30.97
2022-09-03T15:47:50.788Z,30.72
2022-09-03T15:50:52.751Z,30.50
2022-09-03T15:53:50.964Z,30.57
2022-09-03T15:56:47.271Z,30.93
2022-09-03T15:59:41.083Z,30.79
2022-09-03T16:02:34.455Z,30.77
2022-09-03T16:05:29.012Z,30.75
2022-09-03T16:08:21.758Z,30.84
2022-09-03T16:11:14.647Z,30.74
2022-09-03T16:14:10.372Z,30.80
2022-09-03T16:17:03.458Z,30.72
2022-09-03T16:19:56.646Z,30.99
2022-09-03T16:22:48.903Z,30.87
2022-09-03T16:25:48.012Z,30.47
2022-09-03T16:28:39.233Z,30.75
2022-09-03T16:31:51.267Z,30.80
2022-09-03T16:34:50.328Z,30.72
2022-09-03T16:37:47.584Z,30.58
2022-09-03T16:40:42.326Z,30.64
2022-09-03T16:43:41.525Z,30.70
2022-09-03T16:46:37.812Z,30.53
2022-09-03T16:49:38.544Z,30.67
2022-09-03T16:52:38.610Z,30.65
2022-09-03T16:55:36.721Z,31.08
2022-09-03T16:58:33.295Z,31.18
2022-09-03T17:01:46.291Z,31.18
2022-09-03T17:04:51.810Z,31.20
2022-09-03T17:08:09.254Z,31.46
2022-09-03T17:11:06.835Z,31.37
2022-09-03T17:14:07.389Z,31.34
2022-09-03T17:17:06.424Z,31.83
2022-09-03T17:19:59.479Z,31.94
2022-09-03T17:23:00.559Z,31.66
2022-09-03T17:25:53.755Z,31.98
2022-09-03T17:28:51.101Z,32.06
2022-09-03T17:31:51.361Z,32.17
2022-09-03T17:34:48.725Z,31.92
2022-09-03T17:37:50.276Z,32.11
2022-09-03T17:40:44.362Z,32.17
2022-09-03T17:43:37.215Z,32.16
2022-09-03T17:46:31.938Z,32.38
2022-09-03T17:49:23.329Z,32.29
2022-09-03T17:52:23.654Z,32.65
2022-09-03T17:55:15.580Z,32.71
2022-09-03T17:58:11.513Z,32.77
2022-09-03T18:01:07.750Z,32.92
2022-09-03T18:03:58.925Z,33.15
2022-09-03T18:06:57.333Z,33.26
2022-09-03T18:09:53.785Z,33.14
2022-09-03T18:12:59.813Z,33.57
2022-09-03T18:15:57.387Z,33.53
2022-09-03T18:18:47.891Z,33.61
2022-09-03T18:21:56.428Z,33.78
2022-09-03T18:25:05.363Z,34.18
2022-09-03T18:28:16.650Z,34.19
2022-09-03T18:31:24.371Z,34.44
2022-09-03T18:34:30.621Z,34.31
2022-09-03T18:37:40.879Z,34.40
2022-09-03T18:40:52.813Z,34.87
2022-09-03T18:44:08.615Z,34.72
2022-09-03T18:48:01.523Z,34.99
2022-09-03T18:50:49.371Z,34.99
2022-09-03T18:54:02.451Z,35.19
2022-09-03T18:57:14.682Z,35.22
2022-09-03T19:00:29.204Z,35.18
2022-09-03T19:03:54.427Z,35.21
2022-09-03T19:07:07.930Z,35.43
2022-09-03T19:10:20.552Z,35.36
2022-09-03T19:13:38.141Z,35.30
2022-09-03T19:16:54.428Z,35.40
2022-09-03T19:20:09.661Z,35.22
2022-09-03T19:23:15.995Z,35.57
2022-09-03T19:26:27.808Z,35.20
2022-09-03T19:29:49.114Z,35.32
2022-09-03T19:33:04.705Z,35.41
2022-09-03T19:36:19.663Z,35.42
2022-09-03T19:39:39.333Z,35.55
2022-09-03T19:43:03.923Z,35.57
2022-09-03T19:46:15.845Z,35.36
2022-09-03T19:49:28.858Z,35.41
2022-09-03T19:52:46.290Z,35.81
2022-09-03T19:55:55.144Z,35.85
2022-09-03T19:59:04.085Z,35.62
2022-09-03T20:02:10.831Z,35.89
2022-09-03T20:05:20.211Z,35.68
2022-09-03T20:08:26.900Z,35.67
2022-09-03T20:11:20.091Z,35.77
2022-09-03T20:14:16.691Z,35.90
2022-09-03T20:17:15.486Z,35.90
2022-09-03T20:20:17.965Z,35.66
2022-09-03T20:23:14.698Z,35.91
2022-09-03T20:26:25.081Z,36.01
2022-09-03T20:29:33.384Z,35.99
2022-09-03T20:32:34.392Z,36.08
2022-09-03T20:35:32.980Z,35.91
2022-09-03T20:38:30.915Z,35.98
2022-09-03T20:41:25.161Z,35.87
2022-09-03T20:44:35.918Z,36.04
2022-09-03T20:47:39.166Z,36.14
2022-09-03T20:50:43.690Z,36.01
2022-09-03T20:53:43.865Z,35.97
2022-09-03T20:56:35.210Z,36.01
2022-09-03T20:59:30.867Z,36.07
2022-09-03T21:02:26.194Z,36.48
2022-09-03T21:05:19.087Z,36.07
2022-09-03T21:08:18.165Z,36.31
2022-09-03T21:11:14.424Z,36.29
2022-09-03T21:14:14.697Z,36.35
2022-09-03T21:17:30.978Z,36.22
2022-09-03T21:20:26.959Z,36.35
2022-09-03T21:23:21.953Z,36.20
2022-09-03T21:26:16.719Z,36.16
2022-09-03T21:29:09.495Z,36.45
2022-09-03T21:32:03.124Z,36.42
2022-09-03T21:34:57.729Z,36.35
2022-09-03T21:37:52.575Z,36.35
2022-09-03T21:40:46.803Z,36.37
2022-09-03T21:43:39.009Z,36.13
2022-09-03T21:46:31.067Z,36.41
2022-09-03T21:49:24.023Z,36.27
2022-09-03T21:52:15.731Z,36.41
2022-09-03T21:55:05.510Z,36.23
2022-09-03T21:58:05.661Z,36.21
2022-09-03T22:00:57.418Z,36.45
2022-09-03T22:03:45.916Z,36.39
2022-09-03T22:06:40.449Z,36.53
2022-09-03T22:09:34.992Z,36.27
2022-09-03T22:12:28.444Z,36.36
2022-09-03T22:15:20.080Z,36.44
2022-09-03T22:18:17.466Z,36.20
2022-09-03T22:21:13.722Z,36.31
2022-09-03T22:24:10.307Z,36.37
2022-09-03T22:27:03.314Z,36.51
2022-09-03T22:29:58.022Z,36.54
2022-09-03T22:32:55.012Z,36.44
2022-09-03T22:35:53.615Z,36.66
2022-09-03T22:39:11.743Z,36.53
2022-09-03T22:42:10.402Z,36.61
2022-09-03T22:45:14.615Z,36.58
2022-09-03T22:48:23.483Z,36.51
2022-09-03T22:51:12.693Z,36.73
2022-09-03T22:54:12.541Z,36.68
2022-09-03T22:57:02.957Z,36.79
2022-09-03T22:59:57.422Z,36.70
2022-09-03T23:02:47.556Z,36.56
2022-09-03T23:05:41.829Z,36.79
2022-09-03T23:08:34.022Z,36.86
2022-09-03T23:11:25.309Z,36.39
2022-09-03T23:14:16.591Z,36.74
2022-09-03T23:17:08.248Z,36.72
2022-09-03T23:22:59.471Z,36.62
2022-09-03T23:25:51.688Z,36.77
2022-09-03T23:28:43.893Z,36.69
2022-09-03T23:31:32.581Z,36.84
2022-09-03T23:34:21.491Z,36.77
2022-09-03T23:37:34.486Z,36.71
2022-09-03T23:40:35.679Z,36.84
2022-09-03T23:44:03.123Z,36.95
2022-09-03T23:46:59.132Z,36.74
2022-09-03T23:49:57.940Z,36.81
2022-09-03T23:53:13.643Z,36.82
2022-09-03T23:56:12.683Z,37.00
2022-09-03T23:59:08.090Z,37.01
